sensor_id;sensor_type;location;lat;lon;timestamp;pressure;altitude;pressure_sealevel;temperature;humidity
13952;BME280;39535;52.192;9.886;2022-10-17T00:00:51;100779.97;;;14.78;93.27
13952;BME280;39535;52.192;9.886;2022-10-17T00:03:17;100801.72;;;14.83;92.74
13952;BME280;39535;52.192;9.886;2022-10-17T00:05:46;100806.88;;;14.86;92.79
13952;BME280;39535;52.192;9.886;2022-10-17T00:08:14;100807.03;;;14.82;92.61
13952;BME280;39535;52.192;9.886;2022-10-17T00:10:41;100807.75;;;14.87;92.72
13952;BME280;39535;52.192;9.886;2022-10-17T00:13:09;100817.50;;;14.83;92.59
13952;BME280;39535;52.192;9.886;2022-10-17T00:15:36;100814.03;;;14.83;92.84
13952;BME280;39535;52.192;9.886;2022-10-17T00:18:03;100808.69;;;14.84;93.09
13952;BME280;39535;52.192;9.886;2022-10-17T00:20:30;100793.03;;;14.81;93.47
13952;BME280;39535;52.192;9.886;2022-10-17T00:22:57;100783.38;;;14.82;93.79
13952;BME280;39535;52.192;9.886;2022-10-17T00:25:23;100780.78;;;14.80;93.87
13952;BME280;39535;52.192;9.886;2022-10-17T00:27:50;100772.09;;;14.78;94.03
13952;BME280;39535;52.192;9.886;2022-10-17T00:30:18;100769.38;;;14.81;93.92
13952;BME280;39535;52.192;9.886;2022-10-17T00:32:44;100765.84;;;14.82;93.65
13952;BME280;39535;52.192;9.886;2022-10-17T00:35:11;100768.53;;;14.81;93.67
13952;BME280;39535;52.192;9.886;2022-10-17T00:37:37;100772.88;;;14.82;93.75
13952;BME280;39535;52.192;9.886;2022-10-17T00:40:05;100767.66;;;14.80;94.00
13952;BME280;39535;52.192;9.886;2022-10-17T00:42:32;100763.47;;;14.75;94.03
13952;BME280;39535;52.192;9.886;2022-10-17T00:45:07;100753.00;;;14.73;94.49
13952;BME280;39535;52.192;9.886;2022-10-17T00:47:35;100746.88;;;14.73;94.89
13952;BME280;39535;52.192;9.886;2022-10-17T00:50:03;100744.34;;;14.69;95.36
13952;BME280;39535;52.192;9.886;2022-10-17T00:52:30;100715.63;;;14.63;97.02
13952;BME280;39535;52.192;9.886;2022-10-17T00:55:00;100700.78;;;14.62;97.73
13952;BME280;39535;52.192;9.886;2022-10-17T00:57:29;100689.44;;;14.60;98.50
13952;BME280;39535;52.192;9.886;2022-10-17T00:59:58;100676.28;;;14.62;99.15
13952;BME280;39535;52.192;9.886;2022-10-17T01:02:27;100677.09;;;14.64;98.69
13952;BME280;39535;52.192;9.886;2022-10-17T01:04:55;100687.63;;;14.62;98.35
13952;BME280;39535;52.192;9.886;2022-10-17T01:07:24;100698.94;;;14.64;97.86
13952;BME280;39535;52.192;9.886;2022-10-17T01:09:52;100713.00;;;14.63;97.77
13952;BME280;39535;52.192;9.886;2022-10-17T01:12:21;100713.97;;;14.61;97.86
13952;BME280;39535;52.192;9.886;2022-10-17T01:15:02;100722.56;;;14.66;97.33
13952;BME280;39535;52.192;9.886;2022-10-17T01:17:35;100720.78;;;14.66;97.34
13952;BME280;39535;52.192;9.886;2022-10-17T01:20:28;100731.25;;;14.68;96.89
13952;BME280;39535;52.192;9.886;2022-10-17T01:23:15;100746.16;;;14.67;96.33
13952;BME280;39535;52.192;9.886;2022-10-17T01:25:51;100741.81;;;14.66;96.42
13952;BME280;39535;52.192;9.886;2022-10-17T01:28:31;100756.69;;;14.67;95.78
13952;BME280;39535;52.192;9.886;2022-10-17T01:31:08;100755.81;;;14.67;95.74
13952;BME280;39535;52.192;9.886;2022-10-17T01:33:46;100756.72;;;14.66;95.66
13952;BME280;39535;52.192;9.886;2022-10-17T01:36:23;100772.53;;;14.64;95.46
13952;BME280;39535;52.192;9.886;2022-10-17T01:38:58;100770.03;;;14.60;95.27
13952;BME280;39535;52.192;9.886;2022-10-17T01:41:33;100770.16;;;14.55;95.38
13952;BME280;39535;52.192;9.886;2022-10-17T01:44:06;100771.03;;;14.54;95.09
13952;BME280;39535;52.192;9.886;2022-10-17T01:46:38;100765.75;;;14.56;95.07
13952;BME280;39535;52.192;9.886;2022-10-17T01:49:07;100764.03;;;14.55;95.21
13952;BME280;39535;52.192;9.886;2022-10-17T01:51:36;100759.84;;;14.49;95.23
13952;BME280;39535;52.192;9.886;2022-10-17T01:54:10;100757.22;;;14.49;95.16
13952;BME280;39535;52.192;9.886;2022-10-17T01:56:39;100757.13;;;14.50;95.38
13952;BME280;39535;52.192;9.886;2022-10-17T01:59:10;100749.34;;;14.49;95.44
13952;BME280;39535;52.192;9.886;2022-10-17T02:01:41;100744.06;;;14.49;95.77
13952;BME280;39535;52.192;9.886;2022-10-17T02:04:10;100744.06;;;14.49;95.67
13952;BME280;39535;52.192;9.886;2022-10-17T02:06:37;100738.81;;;14.49;95.46
13952;BME280;39535;52.192;9.886;2022-10-17T02:09:15;100742.31;;;14.49;95.62
13952;BME280;39535;52.192;9.886;2022-10-17T02:11:48;100725.97;;;14.40;96.53
13952;BME280;39535;52.192;9.886;2022-10-17T02:14:24;100717.22;;;14.39;96.58
13952;BME280;39535;52.192;9.886;2022-10-17T02:17:03;100716.34;;;14.39;96.46
13952;BME280;39535;52.192;9.886;2022-10-17T02:19:41;100661.38;;;14.33;99.54
13952;BME280;39535;52.192;9.886;2022-10-17T02:22:16;100649.94;;;14.35;99.45
13952;BME280;39535;52.192;9.886;2022-10-17T02:24:49;100648.25;;;14.33;99.03
13952;BME280;39535;52.192;9.886;2022-10-17T02:27:24;100656.94;;;14.35;98.41
13952;BME280;39535;52.192;9.886;2022-10-17T02:30:02;100664.75;;;14.38;98.36
13952;BME280;39535;52.192;9.886;2022-10-17T02:32:38;100667.38;;;14.38;98.14
13952;BME280;39535;52.192;9.886;2022-10-17T02:35:09;100665.63;;;14.37;98.34
13952;BME280;39535;52.192;9.886;2022-10-17T02:37:41;100652.41;;;14.40;99.83
13952;BME280;39535;52.192;9.886;2022-10-17T02:40:10;100635.66;;;14.44;100.00
13952;BME280;39535;52.192;9.886;2022-10-17T02:42:40;100647.81;;;14.46;99.69
13952;BME280;39535;52.192;9.886;2022-10-17T02:45:10;100655.66;;;14.48;99.17
13952;BME280;39535;52.192;9.886;2022-10-17T02:47:45;100666.22;;;14.46;98.91
13952;BME280;39535;52.192;9.886;2022-10-17T02:50:16;100685.53;;;14.45;98.14
13952;BME280;39535;52.192;9.886;2022-10-17T02:52:45;100693.41;;;14.45;98.00
13952;BME280;39535;52.192;9.886;2022-10-17T02:55:17;100697.06;;;14.40;97.56
13952;BME280;39535;52.192;9.886;2022-10-17T02:57:47;100695.44;;;14.36;97.52
13952;BME280;39535;52.192;9.886;2022-10-17T03:00:17;100704.19;;;14.36;97.39
13952;BME280;39535;52.192;9.886;2022-10-17T03:02:47;100691.09;;;14.35;98.44
13952;BME280;39535;52.192;9.886;2022-10-17T03:05:17;100697.22;;;14.35;98.09
13952;BME280;39535;52.192;9.886;2022-10-17T03:07:44;100698.97;;;14.35;97.90
13952;BME280;39535;52.192;9.886;2022-10-17T03:10:11;100681.59;;;14.30;99.19
13952;BME280;39535;52.192;9.886;2022-10-17T03:12:37;100655.44;;;14.27;99.64
13952;BME280;39535;52.192;9.886;2022-10-17T03:15:05;100660.56;;;14.30;99.12
13952;BME280;39535;52.192;9.886;2022-10-17T03:17:31;100656.94;;;14.35;99.00
13952;BME280;39535;52.192;9.886;2022-10-17T03:19:59;100668.41;;;14.32;99.24
13952;BME280;39535;52.192;9.886;2022-10-17T03:22:26;100631.66;;;14.32;100.00
13952;BME280;39535;52.192;9.886;2022-10-17T03:24:52;100605.19;;;14.38;100.00
13952;BME280;39535;52.192;9.886;2022-10-17T03:27:19;100611.06;;;14.46;100.00
13952;BME280;39535;52.192;9.886;2022-10-17T03:29:45;100614.44;;;14.50;100.00
13952;BME280;39535;52.192;9.886;2022-10-17T03:32:12;100616.22;;;14.49;100.00
13952;BME280;39535;52.192;9.886;2022-10-17T03:34:38;100618.69;;;14.54;100.00
13952;BME280;39535;52.192;9.886;2022-10-17T03:37:06;100619.41;;;14.61;100.00
13952;BME280;39535;52.192;9.886;2022-10-17T03:39:33;100619.44;;;14.59;100.00
13952;BME280;39535;52.192;9.886;2022-10-17T03:41:59;100628.13;;;14.61;100.00
13952;BME280;39535;52.192;9.886;2022-10-17T03:44:26;100631.56;;;14.63;100.00
13952;BME280;39535;52.192;9.886;2022-10-17T03:46:52;100627.94;;;14.67;100.00
13952;BME280;39535;52.192;9.886;2022-10-17T03:49:19;100639.09;;;14.74;100.00
13952;BME280;39535;52.192;9.886;2022-10-17T03:51:45;100624.94;;;14.78;100.00
13952;BME280;39535;52.192;9.886;2022-10-17T03:54:13;100614.22;;;14.84;100.00
13952;BME280;39535;52.192;9.886;2022-10-17T03:56:39;100610.59;;;14.88;100.00
13952;BME280;39535;52.192;9.886;2022-10-17T03:59:06;100602.63;;;14.90;100.00
13952;BME280;39535;52.192;9.886;2022-10-17T04:01:33;100606.16;;;14.91;100.00
13952;BME280;39535;52.192;9.886;2022-10-17T04:03:59;100616.56;;;14.92;100.00
13952;BME280;39535;52.192;9.886;2022-10-17T04:06:26;100619.59;;;14.81;100.00
13952;BME280;39535;52.192;9.886;2022-10-17T04:08:52;100627.47;;;14.81;100.00
13952;BME280;39535;52.192;9.886;2022-10-17T04:11:21;100631.75;;;14.84;100.00
13952;BME280;39535;52.192;9.886;2022-10-17T04:13:51;100635.34;;;14.81;100.00
13952;BME280;39535;52.192;9.886;2022-10-17T04:16:19;100639.69;;;14.82;100.00
13952;BME280;39535;52.192;9.886;2022-10-17T04:18:45;100652.22;;;14.74;100.00
13952;BME280;39535;52.192;9.886;2022-10-17T04:21:12;100649.59;;;14.74;100.00
13952;BME280;39535;52.192;9.886;2022-10-17T04:23:39;100662.91;;;14.69;100.00
13952;BME280;39535;52.192;9.886;2022-10-17T04:26:06;100648.75;;;14.74;100.00
13952;BME280;39535;52.192;9.886;2022-10-17T04:28:34;100641.75;;;14.73;100.00
13952;BME280;39535;52.192;9.886;2022-10-17T04:31:03;100642.31;;;14.82;100.00
13952;BME280;39535;52.192;9.886;2022-10-17T04:33:31;100648.34;;;14.86;100.00
13952;BME280;39535;52.192;9.886;2022-10-17T04:35:58;100656.25;;;14.84;100.00
13952;BME280;39535;52.192;9.886;2022-10-17T04:38:26;100669.34;;;14.86;100.00
13952;BME280;39535;52.192;9.886;2022-10-17T04:40:53;100658.72;;;14.91;100.00
13952;BME280;39535;52.192;9.886;2022-10-17T04:43:20;100660.16;;;14.99;100.00
13952;BME280;39535;52.192;9.886;2022-10-17T04:45:48;100667.06;;;15.02;100.00
13952;BME280;39535;52.192;9.886;2022-10-17T04:48:14;100673.00;;;15.08;100.00
13952;BME280;39535;52.192;9.886;2022-10-17T04:50:41;100676.38;;;15.12;100.00
13952;BME280;39535;52.192;9.886;2022-10-17T04:53:07;100675.34;;;15.16;100.00
13952;BME280;39535;52.192;9.886;2022-10-17T04:55:36;100692.69;;;15.22;100.00
13952;BME280;39535;52.192;9.886;2022-10-17T04:58:03;100695.19;;;15.26;100.00
13952;BME280;39535;52.192;9.886;2022-10-17T05:00:30;100693.34;;;15.28;100.00
13952;BME280;39535;52.192;9.886;2022-10-17T05:02:57;100705.38;;;15.36;100.00
13952;BME280;39535;52.192;9.886;2022-10-17T05:07:52;100725.31;;;15.43;100.00
13952;BME280;39535;52.192;9.886;2022-10-17T05:10:18;100729.59;;;15.45;100.00
13952;BME280;39535;52.192;9.886;2022-10-17T05:12:45;100729.44;;;15.50;100.00
13952;BME280;39535;52.192;9.886;2022-10-17T05:15:12;100730.09;;;15.57;100.00
13952;BME280;39535;52.192;9.886;2022-10-17T05:17:39;100729.22;;;15.56;100.00
13952;BME280;39535;52.192;9.886;2022-10-17T05:20:08;100733.56;;;15.57;100.00
13952;BME280;39535;52.192;9.886;2022-10-17T05:22:34;100736.41;;;15.51;100.00
13952;BME280;39535;52.192;9.886;2022-10-17T05:25:01;100729.59;;;15.45;100.00
13952;BME280;39535;52.192;9.886;2022-10-17T05:27:28;100722.50;;;15.47;100.00
13952;BME280;39535;52.192;9.886;2022-10-17T05:29:54;100725.09;;;15.49;100.00
13952;BME280;39535;52.192;9.886;2022-10-17T05:32:21;100727.75;;;15.47;100.00
13952;BME280;39535;52.192;9.886;2022-10-17T05:34:47;100723.38;;;15.48;100.00
13952;BME280;39535;52.192;9.886;2022-10-17T05:37:15;100728.69;;;15.46;100.00
13952;BME280;39535;52.192;9.886;2022-10-17T05:39:42;100726.81;;;15.50;100.00
13952;BME280;39535;52.192;9.886;2022-10-17T05:42:08;100740.59;;;15.57;100.00
13952;BME280;39535;52.192;9.886;2022-10-17T05:44:34;100741.59;;;15.54;100.00
13952;BME280;39535;52.192;9.886;2022-10-17T05:47:03;100740.69;;;15.54;100.00
13952;BME280;39535;52.192;9.886;2022-10-17T05:49:29;100752.00;;;15.57;100.00
13952;BME280;39535;52.192;9.886;2022-10-17T05:51:56;100753.47;;;15.66;100.00
13952;BME280;39535;52.192;9.886;2022-10-17T05:54:24;100759.44;;;15.69;100.00
13952;BME280;39535;52.192;9.886;2022-10-17T05:56:51;100762.06;;;15.69;100.00
13952;BME280;39535;52.192;9.886;2022-10-17T05:59:17;100767.28;;;15.71;100.00
13952;BME280;39535;52.192;9.886;2022-10-17T06:01:44;100779.56;;;15.72;100.00
13952;BME280;39535;52.192;9.886;2022-10-17T06:04:10;100776.97;;;15.71;100.00
13952;BME280;39535;52.192;9.886;2022-10-17T06:06:38;100778.63;;;15.75;100.00
13952;BME280;39535;52.192;9.886;2022-10-17T06:09:05;100775.13;;;15.74;100.00
13952;BME280;39535;52.192;9.886;2022-10-17T06:11:34;100774.28;;;15.72;100.00
13952;BME280;39535;52.192;9.886;2022-10-17T06:14:00;100780.44;;;15.73;100.00
13952;BME280;39535;52.192;9.886;2022-10-17T06:16:27;100775.13;;;15.74;100.00
13952;BME280;39535;52.192;9.886;2022-10-17T06:18:53;100779.19;;;15.83;100.00
13952;BME280;39535;52.192;9.886;2022-10-17T06:21:22;100794.38;;;15.76;100.00
13952;BME280;39535;52.192;9.886;2022-10-17T06:23:49;100793.28;;;15.82;100.00
13952;BME280;39535;52.192;9.886;2022-10-17T06:26:15;100791.56;;;15.81;100.00
13952;BME280;39535;52.192;9.886;2022-10-17T06:28:43;100795.00;;;15.83;100.00
13952;BME280;39535;52.192;9.886;2022-10-17T06:31:14;100789.84;;;15.80;100.00
13952;BME280;39535;52.192;9.886;2022-10-17T06:33:41;100797.38;;;15.91;99.73
13952;BME280;39535;52.192;9.886;2022-10-17T06:36:11;100805.09;;;15.95;99.25
13952;BME280;39535;52.192;9.886;2022-10-17T06:38:38;100813.75;;;15.99;98.92
13952;BME280;39535;52.192;9.886;2022-10-17T06:41:07;100817.94;;;16.04;98.43
13952;BME280;39535;52.192;9.886;2022-10-17T06:43:35;100827.34;;;16.12;98.16
13952;BME280;39535;52.192;9.886;2022-10-17T06:46:04;100847.44;;;16.14;97.41
13952;BME280;39535;52.192;9.886;2022-10-17T06:48:31;100849.69;;;16.25;97.52
13952;BME280;39535;52.192;9.886;2022-10-17T06:50:58;100866.47;;;16.22;97.09
13952;BME280;39535;52.192;9.886;2022-10-17T06:53:26;100852.97;;;16.32;97.10
13952;BME280;39535;52.192;9.886;2022-10-17T06:55:53;100855.59;;;16.32;96.86
13952;BME280;39535;52.192;9.886;2022-10-17T06:58:22;100880.13;;;16.34;96.55
13952;BME280;39535;52.192;9.886;2022-10-17T07:00:48;100870.38;;;16.36;96.49
13952;BME280;39535;52.192;9.886;2022-10-17T07:03:16;100865.00;;;16.39;96.83
13952;BME280;39535;52.192;9.886;2022-10-17T07:05:50;100883.28;;;16.43;96.33
13952;BME280;39535;52.192;9.886;2022-10-17T07:08:16;100887.56;;;16.46;96.23
13952;BME280;39535;52.192;9.886;2022-10-17T07:10:43;100865.78;;;16.41;97.07
13952;BME280;39535;52.192;9.886;2022-10-17T07:13:09;100872.75;;;16.43;96.51
13952;BME280;39535;52.192;9.886;2022-10-17T07:15:36;100869.34;;;16.40;96.42
13952;BME280;39535;52.192;9.886;2022-10-17T07:18:03;100880.66;;;16.43;95.92
13952;BME280;39535;52.192;9.886;2022-10-17T07:20:31;100904.25;;;16.46;95.51
13952;BME280;39535;52.192;9.886;2022-10-17T07:22:58;100894.44;;;16.50;96.14
13952;BME280;39535;52.192;9.886;2022-10-17T07:25:25;100884.00;;;16.47;96.43
13952;BME280;39535;52.192;9.886;2022-10-17T07:27:52;100879.50;;;16.51;96.75
13952;BME280;39535;52.192;9.886;2022-10-17T07:30:19;100865.47;;;16.50;97.20
13952;BME280;39535;52.192;9.886;2022-10-17T07:32:46;100859.44;;;16.46;97.23
13952;BME280;39535;52.192;9.886;2022-10-17T07:35:13;100862.72;;;16.53;97.29
13952;BME280;39535;52.192;9.886;2022-10-17T07:37:41;100859.06;;;16.57;97.42
13952;BME280;39535;52.192;9.886;2022-10-17T07:40:09;100849.41;;;16.56;98.13
13952;BME280;39535;52.192;9.886;2022-10-17T07:42:36;100841.28;;;16.62;98.91
13952;BME280;39535;52.192;9.886;2022-10-17T07:45:04;100865.72;;;16.67;96.86
13952;BME280;39535;52.192;9.886;2022-10-17T07:47:31;100889.81;;;16.80;96.22
13952;BME280;39535;52.192;9.886;2022-10-17T07:49:59;100922.84;;;16.91;94.78
13952;BME280;39535;52.192;9.886;2022-10-17T07:52:26;100927.78;;;17.00;94.85
13952;BME280;39535;52.192;9.886;2022-10-17T07:54:54;100940.94;;;17.01;94.18
13952;BME280;39535;52.192;9.886;2022-10-17T07:57:21;100940.69;;;17.07;94.68
13952;BME280;39535;52.192;9.886;2022-10-17T07:59:47;100937.88;;;17.12;94.93
13952;BME280;39535;52.192;9.886;2022-10-17T08:02:20;100928.06;;;17.16;94.99
13952;BME280;39535;52.192;9.886;2022-10-17T08:04:47;100943.72;;;17.20;94.31
13952;BME280;39535;52.192;9.886;2022-10-17T08:07:14;100946.25;;;17.23;94.54
13952;BME280;39535;52.192;9.886;2022-10-17T08:09:41;100947.09;;;17.24;94.30
13952;BME280;39535;52.192;9.886;2022-10-17T08:12:09;100925.25;;;17.20;95.46
13952;BME280;39535;52.192;9.886;2022-10-17T08:14:35;100912.06;;;17.20;95.27
13952;BME280;39535;52.192;9.886;2022-10-17T08:17:03;100933.25;;;17.19;94.70
13952;BME280;39535;52.192;9.886;2022-10-17T08:19:29;100939.03;;;17.29;94.34
13952;BME280;39535;52.192;9.886;2022-10-17T08:21:56;100941.59;;;17.30;93.78
13952;BME280;39535;52.192;9.886;2022-10-17T08:24:23;100976.59;;;17.35;92.70
13952;BME280;39535;52.192;9.886;2022-10-17T08:26:50;100905.13;;;17.40;96.02
13952;BME280;39535;52.192;9.886;2022-10-17T08:29:19;100853.34;;;17.37;98.37
13952;BME280;39535;52.192;9.886;2022-10-17T08:31:45;100852.81;;;17.29;97.88
13952;BME280;39535;52.192;9.886;2022-10-17T08:34:12;100858.03;;;17.31;95.55
13952;BME280;39535;52.192;9.886;2022-10-17T08:36:40;100912.94;;;17.43;94.83
13952;BME280;39535;52.192;9.886;2022-10-17T08:39:06;100935.47;;;17.52;93.50
13952;BME280;39535;52.192;9.886;2022-10-17T08:41:42;100915.03;;;17.57;94.88
13952;BME280;39535;52.192;9.886;2022-10-17T08:44:20;100886.66;;;17.62;96.36
13952;BME280;39535;52.192;9.886;2022-10-17T08:46:53;100836.63;;;17.59;98.38
13952;BME280;39535;52.192;9.886;2022-10-17T08:49:27;100861.94;;;17.64;97.82
13952;BME280;39535;52.192;9.886;2022-10-17T08:52:04;100845.88;;;17.69;98.12
13952;BME280;39535;52.192;9.886;2022-10-17T08:54:38;100894.16;;;17.73;94.78
13952;BME280;39535;52.192;9.886;2022-10-17T08:57:10;100932.38;;;17.86;94.53
13952;BME280;39535;52.192;9.886;2022-10-17T08:59:38;100869.56;;;17.93;98.07
13952;BME280;39535;52.192;9.886;2022-10-17T09:02:20;100891.44;;;17.96;94.91
13952;BME280;39535;52.192;9.886;2022-10-17T09:04:56;100975.66;;;18.04;91.33
13952;BME280;39535;52.192;9.886;2022-10-17T09:07:33;101064.66;;;18.24;88.09
13952;BME280;39535;52.192;9.886;2022-10-17T09:10:08;101013.00;;;18.37;91.42
13952;BME280;39535;52.192;9.886;2022-10-17T09:12:40;100994.16;;;18.45;92.37
13952;BME280;39535;52.192;9.886;2022-10-17T09:15:33;100954.84;;;18.58;92.94
13952;BME280;39535;52.192;9.886;2022-10-17T09:18:09;101005.03;;;18.59;90.35
13952;BME280;39535;52.192;9.886;2022-10-17T09:20:40;101023.19;;;18.67;89.04
13952;BME280;39535;52.192;9.886;2022-10-17T09:23:12;101081.78;;;18.78;87.58
13952;BME280;39535;52.192;9.886;2022-10-17T09:25:42;101144.16;;;18.84;83.77
13952;BME280;39535;52.192;9.886;2022-10-17T09:28:13;101163.97;;;18.96;85.32
13952;BME280;39535;52.192;9.886;2022-10-17T09:30:45;101149.47;;;19.04;85.50
13952;BME280;39535;52.192;9.886;2022-10-17T09:33:13;101120.03;;;19.12;86.65
13952;BME280;39535;52.192;9.886;2022-10-17T09:35:41;101110.91;;;19.19;86.22
13952;BME280;39535;52.192;9.886;2022-10-17T09:38:14;101115.13;;;19.23;85.37
13952;BME280;39535;52.192;9.886;2022-10-17T09:40:42;101148.59;;;19.24;83.97
13952;BME280;39535;52.192;9.886;2022-10-17T09:43:12;101160.72;;;19.30;84.12
13952;BME280;39535;52.192;9.886;2022-10-17T09:45:41;101234.25;;;19.23;80.88
13952;BME280;39535;52.192;9.886;2022-10-17T09:48:19;101265.75;;;19.30;80.56
13952;BME280;39535;52.192;9.886;2022-10-17T09:50:48;101247.94;;;19.33;81.23
13952;BME280;39535;52.192;9.886;2022-10-17T09:53:20;101244.97;;;19.41;81.29
13952;BME280;39535;52.192;9.886;2022-10-17T09:55:50;101228.75;;;19.49;81.52
13952;BME280;39535;52.192;9.886;2022-10-17T09:58:20;101212.44;;;19.58;82.08
13952;BME280;39535;52.192;9.886;2022-10-17T10:00:47;101293.50;;;19.62;78.17
13952;BME280;39535;52.192;9.886;2022-10-17T10:03:18;101272.75;;;19.73;80.19
13952;BME280;39535;52.192;9.886;2022-10-17T10:06:00;101316.06;;;19.72;77.24
13952;BME280;39535;52.192;9.886;2022-10-17T10:08:29;101319.31;;;19.79;78.58
13952;BME280;39535;52.192;9.886;2022-10-17T10:10:58;101330.81;;;19.78;77.74
13952;BME280;39535;52.192;9.886;2022-10-17T10:13:26;101303.19;;;19.83;78.24
13952;BME280;39535;52.192;9.886;2022-10-17T10:15:52;101305.91;;;19.82;78.14
13952;BME280;39535;52.192;9.886;2022-10-17T10:18:32;101274.91;;;19.84;78.72
13952;BME280;39535;52.192;9.886;2022-10-17T10:21:08;101286.50;;;19.81;78.37
13952;BME280;39535;52.192;9.886;2022-10-17T10:23:37;101298.09;;;19.79;77.23
13952;BME280;39535;52.192;9.886;2022-10-17T10:26:19;101281.88;;;19.87;76.92
13952;BME280;39535;52.192;9.886;2022-10-17T10:28:53;101281.38;;;19.97;78.47
13952;BME280;39535;52.192;9.886;2022-10-17T10:31:31;101283.69;;;20.05;77.37
13952;BME280;39535;52.192;9.886;2022-10-17T10:34:10;101275.63;;;20.08;77.13
13952;BME280;39535;52.192;9.886;2022-10-17T10:36:43;101308.00;;;20.15;76.96
13952;BME280;39535;52.192;9.886;2022-10-17T10:39:29;101352.78;;;20.21;75.39
13952;BME280;39535;52.192;9.886;2022-10-17T10:41:57;101380.94;;;20.23;73.92
13952;BME280;39535;52.192;9.886;2022-10-17T10:44:27;101407.06;;;20.33;73.69
13952;BME280;39535;52.192;9.886;2022-10-17T10:47:22;101365.09;;;20.42;75.41
13952;BME280;39535;52.192;9.886;2022-10-17T10:50:06;101389.63;;;20.48;73.88
13952;BME280;39535;52.192;9.886;2022-10-17T10:52:39;101424.75;;;20.53;71.55
13952;BME280;39535;52.192;9.886;2022-10-17T10:55:16;101452.78;;;20.58;72.47
13952;BME280;39535;52.192;9.886;2022-10-17T10:57:48;101485.31;;;20.63;71.81
13952;BME280;39535;52.192;9.886;2022-10-17T11:00:19;101448.97;;;20.66;73.29
13952;BME280;39535;52.192;9.886;2022-10-17T11:02:51;101459.31;;;20.72;71.64
13952;BME280;39535;52.192;9.886;2022-10-17T11:05:29;101477.53;;;20.79;70.78
13952;BME280;39535;52.192;9.886;2022-10-17T11:08:02;101479.13;;;20.83;70.82
13952;BME280;39535;52.192;9.886;2022-10-17T11:10:36;101493.81;;;20.91;70.51
13952;BME280;39535;52.192;9.886;2022-10-17T11:13:10;101455.41;;;20.99;72.49
13952;BME280;39535;52.192;9.886;2022-10-17T11:15:43;101463.44;;;20.98;72.08
13952;BME280;39535;52.192;9.886;2022-10-17T11:18:18;101453.66;;;20.98;71.57
13952;BME280;39535;52.192;9.886;2022-10-17T11:20:52;101462.13;;;21.07;71.55
13952;BME280;39535;52.192;9.886;2022-10-17T11:23:26;101434.44;;;21.12;71.04
13952;BME280;39535;52.192;9.886;2022-10-17T11:25:56;101511.00;;;21.21;68.49
13952;BME280;39535;52.192;9.886;2022-10-17T11:28:24;101526.31;;;21.35;69.29
13952;BME280;39535;52.192;9.886;2022-10-17T11:30:55;101515.81;;;21.32;67.73
13952;BME280;39535;52.192;9.886;2022-10-17T11:33:27;101539.28;;;21.41;68.37
13952;BME280;39535;52.192;9.886;2022-10-17T11:36:02;101545.38;;;21.45;68.50
13952;BME280;39535;52.192;9.886;2022-10-17T11:38:42;101515.06;;;21.49;68.59
13952;BME280;39535;52.192;9.886;2022-10-17T11:41:13;101515.84;;;21.51;67.73
13952;BME280;39535;52.192;9.886;2022-10-17T11:43:45;101485.25;;;21.61;67.90
13952;BME280;39535;52.192;9.886;2022-10-17T11:46:16;101527.53;;;21.66;66.33
13952;BME280;39535;52.192;9.886;2022-10-17T11:48:58;101534.84;;;21.80;66.89
13952;BME280;39535;52.192;9.886;2022-10-17T11:51:28;101542.00;;;21.97;67.50
13952;BME280;39535;52.192;9.886;2022-10-17T11:54:00;101558.91;;;22.13;65.62
13952;BME280;39535;52.192;9.886;2022-10-17T11:56:33;101630.66;;;22.34;64.39
13952;BME280;39535;52.192;9.886;2022-10-17T11:59:18;101657.38;;;22.50;63.71
13952;BME280;39535;52.192;9.886;2022-10-17T12:01:56;101660.91;;;22.68;63.01
13952;BME280;39535;52.192;9.886;2022-10-17T12:04:37;101711.28;;;22.90;61.67
13952;BME280;39535;52.192;9.886;2022-10-17T12:07:14;101737.38;;;23.35;60.30
13952;BME280;39535;52.192;9.886;2022-10-17T12:09:46;101763.72;;;23.42;61.14
13952;BME280;39535;52.192;9.886;2022-10-17T12:12:24;101721.53;;;23.32;61.66
13952;BME280;39535;52.192;9.886;2022-10-17T12:14:51;101699.94;;;23.04;60.91
13952;BME280;39535;52.192;9.886;2022-10-17T12:17:28;101702.44;;;23.07;62.58
13952;BME280;39535;52.192;9.886;2022-10-17T12:20:31;101715.50;;;22.94;61.57
13952;BME280;39535;52.192;9.886;2022-10-17T12:23:18;101662.94;;;22.80;60.89
13952;BME280;39535;52.192;9.886;2022-10-17T12:25:51;101680.63;;;22.81;61.19
13952;BME280;39535;52.192;9.886;2022-10-17T12:28:24;101670.88;;;22.82;61.02
13952;BME280;39535;52.192;9.886;2022-10-17T12:30:55;101670.88;;;22.82;61.20
13952;BME280;39535;52.192;9.886;2022-10-17T12:33:27;101654.09;;;22.79;62.67
13952;BME280;39535;52.192;9.886;2022-10-17T12:45:48;101602.88;;;22.57;62.36
13952;BME280;39535;52.192;9.886;2022-10-17T12:51:20;101618.78;;;22.76;62.95
13952;BME280;39535;52.192;9.886;2022-10-17T12:53:52;101617.69;;;22.80;62.34
13952;BME280;39535;52.192;9.886;2022-10-17T12:56:30;101638.41;;;22.73;61.27
13952;BME280;39535;52.192;9.886;2022-10-17T12:59:05;101657.44;;;22.83;61.66
13952;BME280;39535;52.192;9.886;2022-10-17T13:01:36;101626.38;;;22.84;63.14
13952;BME280;39535;52.192;9.886;2022-10-17T13:04:03;101616.66;;;22.83;63.00
13952;BME280;39535;52.192;9.886;2022-10-17T13:06:32;101642.88;;;22.73;62.03
13952;BME280;39535;52.192;9.886;2022-10-17T13:09:06;101638.53;;;22.72;63.12
13952;BME280;39535;52.192;9.886;2022-10-17T13:11:35;101644.59;;;22.56;61.73
13952;BME280;39535;52.192;9.886;2022-10-17T13:14:14;101626.84;;;22.57;61.96
13952;BME280;39535;52.192;9.886;2022-10-17T13:16:50;101628.78;;;22.53;63.23
13952;BME280;39535;52.192;9.886;2022-10-17T13:19:18;101612.75;;;22.55;63.54